createdAt,value
2023-04-17T00:00:50.677Z,61.80
2023-04-17T00:01:55.481Z,65.43
2023-04-17T00:02:57.590Z,67.65
2023-04-17T00:03:59.476Z,66.20
2023-04-17T00:05:01.276Z,65.80
2023-04-17T00:06:03.701Z,66.15
2023-04-17T00:07:06.115Z,68.88
2023-04-17T00:08:07.712Z,69.93
2023-04-17T00:09:10.144Z,69.50
2023-04-17T00:10:12.233Z,71.27
2023-04-17T00:11:13.983Z,69.75
2023-04-17T00:12:16.115Z,67.95
2023-04-17T00:13:17.782Z,68.77
2023-04-17T00:14:19.401Z,75.03
2023-04-17T00:15:21.101Z,70.50
2023-04-17T00:16:22.758Z,62.37
2023-04-17T00:17:24.452Z,70.13
2023-04-17T00:18:26.229Z,70.40
2023-04-17T00:19:28.167Z,68.28
2023-04-17T00:20:29.984Z,70.35
2023-04-17T00:21:32.201Z,73.75
2023-04-17T00:22:34.144Z,70.88
2023-04-17T00:23:35.835Z,66.78
2023-04-17T00:24:37.509Z,67.72
2023-04-17T00:25:39.104Z,72.63
2023-04-17T00:26:40.886Z,68.90
2023-04-17T00:27:42.955Z,73.20
2023-04-17T00:28:44.861Z,69.35
2023-04-17T00:29:46.634Z,75.28
2023-04-17T00:30:48.411Z,71.60
2023-04-17T00:31:50.134Z,75.05
2023-04-17T00:32:52.274Z,73.38
2023-04-17T00:33:53.947Z,76.60
2023-04-17T00:34:55.964Z,78.22
2023-04-17T00:35:57.839Z,74.43
2023-04-17T00:36:59.560Z,77.32
2023-04-17T00:38:01.251Z,75.60
2023-04-17T00:39:02.957Z,79.00
2023-04-17T00:40:05.036Z,78.18
2023-04-17T00:41:06.755Z,78.07
2023-04-17T00:42:08.353Z,70.13
2023-04-17T00:43:09.979Z,71.90
2023-04-17T00:44:11.689Z,72.45
2023-04-17T00:45:13.483Z,76.90
2023-04-17T00:46:15.585Z,79.03
2023-04-17T00:47:17.844Z,74.95
2023-04-17T00:48:23.982Z,78.45
2023-04-17T00:49:27.521Z,73.85
2023-04-17T00:50:29.875Z,76.82
2023-04-17T00:51:32.459Z,80.72
2023-04-17T00:52:34.489Z,77.73
2023-04-17T00:53:36.460Z,75.03
2023-04-17T00:54:38.339Z,73.18
2023-04-17T00:55:42.770Z,73.23
2023-04-17T00:56:44.670Z,75.78
2023-04-17T00:57:48.254Z,75.83
2023-04-17T00:58:51.634Z,70.10
2023-04-17T00:59:54.343Z,75.07
2023-04-17T01:00:56.122Z,68.05
2023-04-17T01:01:57.871Z,75.00
2023-04-17T01:02:59.579Z,65.55
2023-04-17T01:04:02.114Z,73.82
2023-04-17T01:05:04.166Z,73.20
2023-04-17T01:06:06.149Z,77.43
2023-04-17T01:07:07.917Z,77.37
2023-04-17T01:08:09.821Z,74.32
2023-04-17T01:09:12.154Z,76.60
2023-04-17T01:10:14.137Z,79.50
2023-04-17T01:11:15.938Z,70.40
2023-04-17T01:12:23.764Z,75.28
2023-04-17T01:13:26.431Z,68.97
2023-04-17T01:14:28.276Z,72.13
2023-04-17T01:15:30.195Z,70.05
2023-04-17T01:16:32.110Z,68.35
2023-04-17T01:17:33.893Z,68.90
2023-04-17T01:18:35.507Z,73.45
2023-04-17T01:19:37.110Z,77.07
2023-04-17T01:20:38.969Z,73.20
2023-04-17T01:21:41.223Z,74.00
2023-04-17T01:22:43.549Z,73.10
2023-04-17T01:23:48.652Z,74.33
2023-04-17T01:24:50.966Z,71.77
2023-04-17T01:25:52.989Z,78.18
2023-04-17T01:26:54.558Z,72.53
2023-04-17T01:27:56.887Z,72.75
2023-04-17T01:28:59.955Z,78.25
2023-04-17T01:30:02.160Z,77.20
2023-04-17T01:31:03.933Z,77.22
2023-04-17T01:32:05.886Z,74.53
2023-04-17T01:33:07.524Z,71.65
2023-04-17T01:34:09.266Z,74.53
2023-04-17T01:35:10.849Z,70.40
2023-04-17T01:36:12.872Z,74.47
2023-04-17T01:37:14.552Z,75.28
2023-04-17T01:38:16.164Z,75.82
2023-04-17T01:39:18.110Z,81.72
2023-04-17T01:40:19.966Z,77.75
2023-04-17T01:41:21.771Z,74.60
2023-04-17T01:42:23.480Z,78.32
2023-04-17T01:43:25.205Z,82.05
2023-04-17T01:44:26.981Z,79.57
2023-04-17T01:45:28.624Z,74.40
2023-04-17T01:46:30.439Z,82.30
2023-04-17T01:47:32.056Z,76.20
2023-04-17T01:48:34.815Z,80.90
2023-04-17T01:49:36.530Z,78.20
2023-04-17T01:50:38.305Z,71.95
2023-04-17T01:51:39.996Z,79.27
2023-04-17T01:52:42.005Z,78.30
2023-04-17T01:53:43.797Z,78.60
2023-04-17T01:54:45.472Z,82.78
2023-04-17T01:55:47.215Z,78.03
2023-04-17T01:56:48.888Z,80.55
2023-04-17T01:57:52.131Z,80.72
2023-04-17T01:58:54.556Z,77.22
2023-04-17T01:59:56.277Z,81.63
2023-04-17T02:00:58.132Z,84.07
2023-04-17T02:01:59.865Z,79.95
2023-04-17T02:03:01.575Z,77.95
2023-04-17T02:04:03.530Z,84.47
2023-04-17T02:05:05.601Z,75.25
2023-04-17T02:06:07.320Z,82.72
2023-04-17T02:07:09.099Z,74.88
2023-04-17T02:08:10.727Z,74.60
2023-04-17T02:09:12.630Z,74.43
2023-04-17T02:10:14.406Z,74.40
2023-04-17T02:11:16.216Z,76.15
2023-04-17T02:12:17.904Z,74.82
2023-04-17T02:13:19.626Z,83.15
2023-04-17T02:14:21.246Z,73.85
2023-04-17T02:15:23.070Z,70.10
2023-04-17T02:16:24.740Z,80.53
2023-04-17T02:17:27.186Z,77.68
2023-04-17T02:18:28.856Z,76.97
2023-04-17T02:19:30.743Z,67.63
2023-04-17T02:20:33.444Z,72.03
2023-04-17T02:21:35.220Z,73.30
2023-04-17T02:22:36.981Z,70.32
2023-04-17T02:23:38.614Z,75.20
2023-04-17T02:24:40.345Z,73.95
2023-04-17T02:25:42.035Z,72.50
2023-04-17T02:26:43.799Z,77.18
2023-04-17T02:27:45.466Z,79.90
2023-04-17T02:28:47.079Z,75.20
2023-04-17T02:29:48.697Z,82.30
2023-04-17T02:30:50.411Z,80.13
2023-04-17T02:31:52.129Z,62.97
2023-04-17T02:32:54.816Z,78.15
2023-04-17T02:33:56.593Z,75.00
2023-04-17T02:34:58.207Z,73.70
2023-04-17T02:35:59.858Z,74.63
2023-04-17T02:37:02.219Z,77.90
2023-04-17T02:38:04.016Z,77.45
2023-04-17T02:39:05.942Z,78.57
2023-04-17T02:40:09.737Z,78.77
2023-04-17T02:41:11.590Z,73.68
2023-04-17T02:42:13.349Z,81.90
2023-04-17T02:43:14.904Z,78.83
2023-04-17T02:44:16.496Z,80.20
2023-04-17T02:45:18.290Z,78.68
2023-04-17T02:46:20.205Z,79.50
2023-04-17T02:47:22.573Z,81.43
2023-04-17T02:48:24.350Z,82.50
2023-04-17T02:49:25.923Z,79.60
2023-04-17T02:50:27.638Z,71.82
2023-04-17T02:51:29.224Z,83.03
2023-04-17T02:52:31.732Z,84.93
2023-04-17T02:53:33.561Z,81.80
2023-04-17T02:54:35.140Z,77.25
2023-04-17T02:55:36.779Z,81.60
2023-04-17T02:56:38.504Z,81.47
2023-04-17T02:57:40.120Z,84.20
2023-04-17T02:58:44.498Z,85.72
2023-04-17T02:59:46.339Z,80.78
2023-04-17T03:00:49.034Z,82.00
2023-04-17T03:01:51.006Z,83.10
2023-04-17T03:02:53.606Z,83.97
2023-04-17T03:03:56.139Z,81.22
2023-04-17T03:05:01.991Z,79.75
2023-04-17T03:06:03.900Z,74.32
2023-04-17T03:07:06.769Z,72.13
2023-04-17T03:08:08.616Z,72.82
2023-04-17T03:09:14.801Z,68.72
2023-04-17T03:10:16.519Z,67.20
2023-04-17T03:11:18.321Z,61.55
2023-04-17T03:12:20.692Z,64.45
2023-04-17T03:13:22.418Z,67.22
2023-04-17T03:14:24.125Z,72.65
2023-04-17T03:15:25.761Z,67.63
2023-04-17T03:16:27.534Z,72.75
2023-04-17T03:17:29.289Z,64.22
2023-04-17T03:18:31.445Z,62.10
2023-04-17T03:19:33.207Z,71.43
2023-04-17T03:20:35.004Z,66.43
2023-04-17T03:21:36.670Z,64.95
2023-04-17T03:22:38.537Z,64.45
2023-04-17T03:23:41.470Z,67.97
2023-04-17T03:24:43.138Z,65.28
2023-04-17T03:25:44.731Z,66.63
2023-04-17T03:26:46.545Z,66.57
2023-04-17T03:27:48.549Z,64.72
2023-04-17T03:28:50.643Z,64.25
2023-04-17T03:29:54.816Z,66.50
2023-04-17T03:30:59.544Z,64.32
2023-04-17T03:32:01.338Z,61.53
2023-04-17T03:33:05.863Z,67.72
2023-04-17T03:34:08.094Z,62.17
2023-04-17T03:35:09.716Z,62.50
2023-04-17T03:36:11.505Z,54.20
2023-04-17T03:37:13.117Z,62.50
2023-04-17T03:38:14.735Z,59.38
2023-04-17T03:39:16.599Z,62.20
2023-04-17T03:40:18.205Z,65.70
2023-04-17T03:41:19.825Z,61.72
2023-04-17T03:42:21.430Z,59.60
2023-04-17T03:43:23.249Z,58.28
2023-04-17T03:44:24.871Z,55.90
2023-04-17T03:45:26.482Z,65.15
2023-04-17T03:46:28.240Z,57.67
2023-04-17T03:47:30.502Z,61.65
2023-04-17T03:48:32.200Z,60.08
2023-04-17T03:49:33.985Z,57.53
2023-04-17T03:50:35.761Z,59.28
2023-04-17T03:51:37.387Z,60.03
2023-04-17T03:52:39.145Z,60.15
2023-04-17T03:53:40.828Z,58.25
2023-04-17T03:54:42.788Z,57.08
2023-04-17T03:55:44.413Z,59.88
2023-04-17T03:56:46.238Z,63.58
2023-04-17T03:57:49.861Z,57.80
2023-04-17T03:58:51.494Z,58.60
2023-04-17T03:59:53.301Z,63.55
2023-04-17T04:00:55.807Z,61.60
2023-04-17T04:01:57.495Z,57.05
2023-04-17T04:02:59.609Z,58.10
2023-04-17T04:04:01.813Z,59.95
2023-04-17T04:05:04.410Z,57.90
2023-04-17T04:06:07.305Z,60.70
2023-04-17T04:07:09.206Z,58.47
2023-04-17T04:08:11.433Z,60.55
2023-04-17T04:09:13.196Z,60.07
2023-04-17T04:10:14.949Z,59.50
2023-04-17T04:11:16.814Z,56.05
2023-04-17T04:12:18.404Z,53.10
2023-04-17T04:13:20.269Z,54.90
2023-04-17T04:14:22.103Z,55.72
2023-04-17T04:15:23.898Z,58.33
2023-04-17T04:16:25.518Z,61.63
2023-04-17T04:17:27.903Z,63.45
2023-04-17T04:18:29.600Z,60.00
2023-04-17T04:19:31.222Z,57.97
2023-04-17T04:20:32.960Z,60.07
2023-04-17T04:21:34.604Z,61.47
2023-04-17T04:22:36.317Z,62.72
2023-04-17T04:23:41.108Z,63.88
2023-04-17T04:24:42.866Z,59.33
2023-04-17T04:25:44.657Z,65.38
2023-04-17T04:26:49.670Z,61.67
2023-04-17T04:27:51.933Z,59.20
2023-04-17T04:28:53.831Z,61.65
2023-04-17T04:29:58.851Z,53.83
2023-04-17T04:31:02.613Z,61.55
2023-04-17T04:32:04.867Z,61.47
2023-04-17T04:33:08.390Z,60.85
2023-04-17T04:34:11.131Z,61.00
2023-04-17T04:35:14.115Z,65.03
2023-04-17T04:36:21.070Z,61.35
2023-04-17T04:37:30.044Z,60.33
2023-04-17T04:38:32.916Z,63.30
2023-04-17T04:39:37.877Z,56.88
2023-04-17T04:40:40.095Z,56.60
2023-04-17T04:41:45.924Z,60.50
2023-04-17T04:42:51.123Z,55.35
2023-04-17T04:45:11.698Z,62.33
2023-04-17T04:46:13.346Z,62.40
2023-04-17T04:47:14.982Z,59.15
2023-04-17T04:48:16.684Z,62.57
2023-04-17T04:49:18.240Z,61.67
2023-04-17T04:50:20.347Z,62.78
2023-04-17T04:51:21.909Z,61.40
2023-04-17T04:52:23.587Z,59.58
2023-04-17T04:53:25.179Z,60.00
2023-04-17T04:54:26.760Z,60.22
2023-04-17T04:55:30.776Z,63.15
2023-04-17T04:56:33.116Z,59.88
2023-04-17T04:57:34.789Z,60.78
2023-04-17T04:58:36.401Z,58.65
2023-04-17T04:59:39.087Z,59.28
2023-04-17T05:00:40.820Z,60.45
2023-04-17T05:01:42.986Z,60.28
2023-04-17T05:02:44.742Z,56.90
2023-04-17T05:03:46.741Z,59.33
2023-04-17T05:04:48.368Z,59.17
2023-04-17T05:05:50.531Z,62.05
2023-04-17T05:06:52.496Z,62.08
2023-04-17T05:07:55.715Z,59.80
2023-04-17T05:08:57.292Z,56.55
2023-04-17T05:09:58.760Z,54.15
2023-04-17T05:11:00.392Z,56.70
2023-04-17T05:12:02.152Z,56.08
2023-04-17T05:13:03.807Z,54.17
2023-04-17T05:14:05.433Z,55.28
2023-04-17T05:15:07.376Z,55.20
2023-04-17T05:16:09.258Z,56.17
2023-04-17T05:17:10.815Z,51.90
2023-04-17T05:18:12.383Z,57.47
2023-04-17T05:19:14.131Z,53.13
2023-04-17T05:20:15.793Z,59.15
2023-04-17T05:21:17.508Z,56.90
2023-04-17T05:22:19.272Z,52.95
2023-04-17T05:23:21.533Z,50.78
2023-04-17T05:24:23.189Z,54.80
2023-04-17T05:25:24.923Z,55.55
2023-04-17T05:26:27.089Z,53.23
2023-04-17T05:27:28.756Z,54.87
2023-04-17T05:28:30.440Z,49.72
2023-04-17T05:29:33.149Z,55.13
2023-04-17T05:30:35.053Z,53.55
2023-04-17T05:31:36.639Z,52.85
2023-04-17T05:32:38.408Z,56.25
2023-04-17T05:33:40.314Z,53.70
2023-04-17T05:34:41.859Z,51.83
2023-04-17T05:35:43.393Z,55.67
2023-04-17T05:36:44.859Z,50.40
2023-04-17T05:37:46.579Z,48.92
2023-04-17T05:38:48.407Z,50.25
2023-04-17T05:39:50.001Z,46.80
2023-04-17T05:40:52.807Z,49.40
2023-04-17T05:41:56.900Z,51.20
2023-04-17T05:43:05.482Z,52.95
2023-04-17T05:44:07.275Z,52.75
2023-04-17T05:45:12.359Z,52.28
2023-04-17T05:46:13.876Z,48.70
2023-04-17T05:47:15.622Z,50.83
2023-04-17T05:48:17.277Z,51.25
2023-04-17T05:49:18.841Z,49.78
2023-04-17T05:50:20.595Z,51.33
2023-04-17T05:51:22.179Z,47.10
2023-04-17T05:52:24.453Z,49.20
2023-04-17T05:53:26.072Z,45.40
2023-04-17T05:54:30.404Z,43.65
2023-04-17T05:55:32.166Z,41.97
2023-04-17T05:56:34.151Z,46.22
2023-04-17T05:57:35.855Z,44.53
2023-04-17T05:58:37.371Z,47.40
2023-04-17T05:59:39.028Z,45.78
2023-04-17T06:00:41.583Z,43.83
2023-04-17T06:01:43.756Z,45.05
2023-04-17T06:02:45.532Z,47.30
2023-04-17T06:03:48.170Z,45.53
2023-04-17T06:04:50.142Z,48.00
2023-04-17T06:05:52.191Z,46.63
2023-04-17T06:06:54.085Z,44.38
2023-04-17T06:07:56.443Z,47.30
2023-04-17T06:08:58.470Z,45.53
2023-04-17T06:10:00.260Z,45.30
2023-04-17T06:11:01.780Z,45.80
2023-04-17T06:12:04.127Z,47.35
2023-04-17T06:13:05.659Z,46.70
2023-04-17T06:14:07.217Z,45.33
2023-04-17T06:15:09.369Z,46.13
2023-04-17T06:16:11.011Z,46.35
2023-04-17T06:17:12.772Z,45.47
2023-04-17T06:18:16.179Z,46.83
2023-04-17T06:19:17.825Z,43.05
2023-04-17T06:20:19.647Z,43.50
2023-04-17T06:21:21.453Z,45.03
2023-04-17T06:22:23.054Z,44.77
2023-04-17T06:23:24.662Z,42.63
2023-04-17T06:24:26.249Z,40.93
2023-04-17T06:25:27.807Z,37.10
2023-04-17T06:26:29.421Z,40.93
2023-04-17T06:27:31.086Z,43.93
2023-04-17T06:28:32.690Z,41.70
2023-04-17T06:29:34.383Z,43.05
2023-04-17T06:30:36.387Z,38.20
2023-04-17T06:31:38.073Z,40.85
2023-04-17T06:32:43.905Z,45.50
2023-04-17T06:33:45.980Z,47.37
2023-04-17T06:35:53.959Z,37.42
2023-04-17T06:36:56.118Z,33.50
2023-04-17T06:37:57.739Z,36.25
2023-04-17T06:38:59.677Z,33.45
2023-04-17T06:40:01.472Z,31.20
2023-04-17T06:41:03.116Z,31.63
2023-04-17T06:42:06.349Z,30.15
2023-04-17T06:43:08.249Z,31.63
2023-04-17T06:44:10.094Z,30.67
2023-04-17T06:45:12.217Z,31.37
2023-04-17T06:46:14.197Z,31.27
2023-04-17T06:47:15.834Z,30.00
2023-04-17T06:48:17.368Z,28.07
2023-04-17T06:49:19.006Z,31.37
2023-04-17T06:50:20.736Z,32.50
2023-04-17T06:51:22.345Z,31.20
2023-04-17T06:52:24.023Z,35.60
2023-04-17T06:53:25.830Z,39.87
2023-04-17T06:54:27.572Z,48.43
2023-04-17T06:55:29.164Z,52.17
2023-04-17T06:56:30.780Z,48.20
2023-04-17T06:57:33.983Z,38.40
2023-04-17T06:58:42.525Z,33.30
2023-04-17T06:59:44.662Z,34.40
2023-04-17T07:00:46.368Z,33.90
2023-04-17T07:01:48.070Z,26.77
2023-04-17T07:02:49.842Z,30.43
2023-04-17T07:03:51.741Z,43.73
2023-04-17T07:04:55.052Z,32.93
2023-04-17T07:05:57.497Z,29.00
2023-04-17T07:06:59.332Z,29.00
2023-04-17T07:08:01.259Z,29.65
2023-04-17T07:09:02.973Z,29.80
2023-04-17T07:10:04.900Z,29.07
2023-04-17T07:11:06.564Z,26.58
2023-04-17T07:12:08.217Z,26.77
2023-04-17T07:13:09.768Z,26.60
2023-04-17T07:14:12.933Z,25.17
2023-04-17T07:15:14.761Z,26.37
2023-04-17T07:16:16.500Z,27.60
2023-04-17T07:17:18.224Z,25.73
2023-04-17T07:18:20.050Z,26.17
2023-04-17T07:19:21.741Z,26.10
2023-04-17T07:20:23.346Z,35.50
2023-04-17T07:21:24.921Z,27.70
2023-04-17T07:22:27.421Z,27.63
2023-04-17T07:23:29.238Z,32.30
2023-04-17T07:24:34.950Z,27.97
2023-04-17T07:25:36.618Z,47.80
2023-04-17T07:26:40.442Z,42.00
2023-04-17T07:27:42.367Z,28.10
2023-04-17T07:28:43.938Z,25.50
2023-04-17T07:29:47.696Z,26.73
2023-04-17T07:30:49.241Z,25.17
2023-04-17T07:31:50.828Z,25.50
2023-04-17T07:32:52.645Z,25.55
2023-04-17T07:33:54.444Z,25.90
2023-04-17T07:34:56.526Z,25.73
2023-04-17T07:35:58.216Z,28.57
2023-04-17T07:37:00.094Z,27.67
2023-04-17T07:38:03.678Z,23.93
2023-04-17T07:39:07.220Z,23.47
2023-04-17T07:40:10.549Z,24.07
2023-04-17T07:41:13.043Z,26.40
2023-04-17T07:42:14.561Z,29.10
2023-04-17T07:43:16.853Z,22.27
2023-04-17T07:44:18.581Z,22.03
2023-04-17T07:45:20.183Z,22.07
2023-04-17T07:46:21.899Z,21.80
2023-04-17T07:47:24.885Z,26.17
2023-04-17T07:48:27.715Z,24.43
2023-04-17T07:49:29.466Z,23.73
2023-04-17T07:50:32.400Z,22.60
2023-04-17T07:51:33.953Z,24.95
2023-04-17T07:52:35.606Z,25.33
2023-04-17T07:53:38.781Z,26.60
2023-04-17T07:54:40.502Z,25.27
2023-04-17T07:55:42.036Z,25.53
2023-04-17T07:56:46.565Z,23.30
2023-04-17T07:57:51.605Z,23.83
2023-04-17T07:58:53.665Z,22.83
2023-04-17T07:59:55.753Z,26.03
2023-04-17T08:00:58.137Z,23.37
2023-04-17T08:02:00.040Z,23.70
2023-04-17T08:03:02.324Z,23.50
2023-04-17T08:04:04.648Z,23.33
2023-04-17T08:05:07.978Z,22.53
2023-04-17T08:06:09.883Z,26.40
2023-04-17T08:07:12.806Z,26.73
2023-04-17T08:08:15.295Z,27.50
2023-04-17T08:09:16.864Z,27.87
2023-04-17T08:10:18.495Z,22.40
2023-04-17T08:11:20.073Z,23.87
2023-04-17T08:12:21.664Z,23.70
2023-04-17T08:13:23.168Z,23.57
2023-04-17T08:14:25.209Z,21.80
2023-04-17T08:15:27.043Z,25.57
2023-04-17T08:16:28.780Z,26.23
2023-04-17T08:17:30.780Z,21.10
2023-04-17T08:18:32.743Z,26.23
2023-04-17T08:19:34.791Z,24.17
2023-04-17T08:20:36.860Z,22.07
2023-04-17T08:21:38.882Z,21.20
2023-04-17T08:22:45.087Z,22.07
2023-04-17T08:23:46.667Z,20.70
2023-04-17T08:24:49.497Z,26.40
2023-04-17T08:25:51.138Z,33.87
2023-04-17T08:26:52.936Z,50.10
2023-04-17T08:27:54.572Z,30.10
2023-04-17T08:28:56.233Z,27.57
2023-04-17T08:29:58.384Z,20.27
2023-04-17T08:31:00.110Z,19.57
2023-04-17T08:32:14.169Z,20.80
2023-04-17T08:33:17.159Z,29.17
2023-04-17T08:34:18.728Z,35.63
2023-04-17T08:35:20.872Z,22.63
2023-04-17T08:36:22.929Z,20.63
2023-04-17T08:37:24.855Z,18.77
2023-04-17T08:38:29.049Z,19.00
2023-04-17T08:39:31.205Z,18.37
2023-04-17T08:40:32.758Z,19.23
2023-04-17T08:41:38.207Z,20.97
2023-04-17T08:42:41.784Z,16.57
2023-04-17T08:43:43.727Z,17.90
2023-04-17T08:44:45.772Z,17.43
2023-04-17T08:45:52.911Z,17.00
2023-04-17T08:46:58.694Z,17.90
2023-04-17T08:48:01.082Z,16.03
2023-04-17T08:49:03.194Z,15.37
2023-04-17T08:50:14.338Z,17.60
2023-04-17T08:51:16.142Z,15.87
2023-04-17T08:52:17.671Z,16.27
2023-04-17T08:53:19.717Z,15.00
2023-04-17T08:54:22.131Z,14.80
2023-04-17T08:55:30.133Z,15.93
2023-04-17T08:56:31.758Z,14.50
2023-04-17T08:57:33.264Z,15.33
2023-04-17T08:58:35.547Z,14.60
2023-04-17T08:59:37.378Z,15.50
2023-04-17T09:00:40.668Z,16.17
2023-04-17T09:02:01.460Z,15.40
2023-04-17T09:03:08.195Z,14.50
2023-04-17T09:04:10.193Z,15.47
2023-04-17T09:05:21.885Z,14.70
2023-04-17T09:06:23.707Z,17.43
2023-04-17T09:07:29.770Z,15.30
2023-04-17T09:08:31.558Z,16.70
2023-04-17T09:09:48.488Z,14.00
2023-04-17T09:10:51.116Z,15.80
2023-04-17T09:12:08.715Z,14.90
2023-04-17T09:13:12.428Z,19.50
2023-04-17T09:14:29.678Z,15.90
2023-04-17T09:15:31.811Z,15.03
2023-04-17T09:16:34.259Z,14.30
2023-04-17T09:17:37.844Z,13.27
2023-04-17T09:18:41.085Z,16.23
2023-04-17T09:20:01.342Z,51.23
2023-04-17T09:21:04.434Z,19.43
2023-04-17T09:22:22.373Z,29.73
2023-04-17T09:23:24.317Z,85.20
2023-04-17T09:24:35.290Z,53.67
2023-04-17T09:25:36.926Z,32.97
2023-04-17T09:26:38.549Z,15.63
2023-04-17T09:27:40.123Z,15.07
2023-04-17T09:28:43.705Z,18.73
2023-04-17T09:30:06.056Z,29.30
2023-04-17T09:31:24.521Z,11.90
2023-04-17T09:32:26.604Z,13.87
2023-04-17T09:33:28.374Z,38.97
2023-04-17T09:34:39.999Z,28.10
2023-04-17T09:35:41.682Z,21.10
2023-04-17T09:36:43.786Z,13.03
2023-04-17T09:37:53.162Z,14.80
2023-04-17T09:38:54.894Z,13.93
2023-04-17T09:40:00.160Z,17.00
2023-04-17T09:41:01.951Z,16.07
2023-04-17T09:42:04.338Z,16.30
2023-04-17T09:43:09.427Z,14.27
2023-04-17T09:44:12.452Z,16.00
2023-04-17T09:45:20.635Z,13.30
2023-04-17T09:46:31.631Z,14.70
2023-04-17T09:47:33.591Z,13.73
2023-04-17T09:48:35.213Z,12.23
2023-04-17T09:49:42.256Z,14.27
2023-04-17T09:50:44.461Z,13.77
2023-04-17T09:51:46.677Z,12.47
2023-04-17T09:52:50.189Z,12.40
2023-04-17T09:53:52.882Z,13.17
2023-04-17T09:54:54.717Z,15.40
2023-04-17T09:55:56.419Z,13.77
2023-04-17T09:57:03.756Z,11.53
2023-04-17T09:58:07.533Z,12.67
2023-04-17T09:59:09.879Z,11.87
2023-04-17T10:00:15.084Z,10.00
2023-04-17T10:01:17.887Z,10.80
2023-04-17T10:02:20.657Z,12.60
2023-04-17T10:03:22.929Z,11.43
2023-04-17T10:04:25.165Z,10.70
2023-04-17T10:05:28.841Z,12.13
2023-04-17T10:06:31.645Z,10.93
2023-04-17T10:07:35.348Z,11.13
2023-04-17T10:08:37.153Z,11.70
2023-04-17T10:09:43.400Z,10.23
2023-04-17T10:10:46.570Z,11.70
2023-04-17T10:11:48.418Z,11.30
2023-04-17T10:12:50.878Z,12.60
2023-04-17T10:14:04.467Z,11.23
2023-04-17T10:15:09.365Z,11.27
2023-04-17T10:16:11.005Z,9.43
2023-04-17T10:17:28.757Z,9.60
2023-04-17T10:18:30.756Z,10.30
2023-04-17T10:19:33.427Z,10.43
2023-04-17T10:20:36.577Z,9.60
2023-04-17T10:21:39.983Z,10.13
2023-04-17T10:22:42.913Z,9.80
2023-04-17T10:23:44.811Z,8.50
2023-04-17T10:24:53.563Z,8.70
2023-04-17T10:26:14.932Z,8.80
2023-04-17T10:27:28.376Z,9.90
2023-04-17T10:28:49.394Z,8.93
2023-04-17T10:29:58.630Z,8.53
2023-04-17T10:31:02.029Z,10.73
2023-04-17T10:32:09.768Z,9.50
2023-04-17T10:33:20.123Z,9.50
2023-04-17T10:34:34.651Z,8.50
2023-04-17T10:35:36.785Z,9.27
2023-04-17T10:36:38.349Z,9.00
2023-04-17T10:37:51.968Z,9.23
2023-04-17T10:38:53.596Z,9.07
2023-04-17T10:40:00.666Z,8.50
2023-04-17T10:41:04.079Z,9.20
2023-04-17T10:42:06.249Z,8.10
2023-04-17T10:43:26.490Z,9.83
2023-04-17T10:44:31.235Z,9.83
2023-04-17T10:45:51.234Z,9.20
2023-04-17T10:46:52.908Z,9.13
2023-04-17T10:47:58.576Z,8.67
2023-04-17T10:49:04.294Z,10.03
2023-04-17T10:50:08.679Z,9.53
2023-04-17T10:51:32.414Z,8.40
2023-04-17T10:52:45.022Z,7.40
2023-04-17T10:53:46.648Z,7.57
2023-04-17T10:55:08.876Z,9.20
2023-04-17T10:56:11.763Z,8.37
2023-04-17T10:57:13.479Z,7.43
2023-04-17T10:58:15.668Z,8.00
2023-04-17T10:59:18.455Z,8.37
2023-04-17T11:00:21.592Z,9.80
2023-04-17T11:01:30.478Z,7.90
2023-04-17T11:02:35.857Z,8.40
2023-04-17T11:03:38.398Z,10.50
2023-04-17T11:04:40.232Z,7.33
2023-04-17T11:05:45.877Z,8.50
2023-04-17T11:06:48.510Z,7.53
2023-04-17T11:07:52.974Z,6.77
2023-04-17T11:08:56.775Z,7.60
2023-04-17T11:09:59.745Z,7.87
2023-04-17T11:11:01.626Z,7.63
2023-04-17T11:12:03.473Z,7.57
2023-04-17T11:13:05.030Z,7.10
2023-04-17T11:14:12.815Z,6.77
2023-04-17T11:15:16.490Z,7.40
2023-04-17T11:16:19.521Z,7.20
2023-04-17T11:17:22.504Z,6.97
2023-04-17T11:18:24.148Z,7.50
2023-04-17T11:19:26.296Z,8.37
2023-04-17T11:20:30.118Z,6.00
2023-04-17T11:21:32.606Z,6.80
2023-04-17T11:22:34.246Z,7.13
2023-04-17T11:23:36.358Z,6.43
2023-04-17T11:24:38.096Z,6.53
2023-04-17T11:25:40.259Z,6.73
2023-04-17T11:26:43.094Z,6.50
2023-04-17T11:27:44.600Z,6.20
2023-04-17T11:28:46.339Z,7.07
2023-04-17T11:29:48.050Z,7.10
2023-04-17T11:30:49.782Z,6.30
2023-04-17T11:31:52.590Z,7.20
2023-04-17T11:32:54.464Z,8.43
2023-04-17T11:33:58.730Z,10.77
2023-04-17T11:35:01.186Z,10.37
2023-04-17T11:36:04.212Z,8.03
2023-04-17T11:37:05.756Z,7.33
2023-04-17T11:38:20.996Z,7.83
2023-04-17T11:39:24.553Z,8.90
2023-04-17T11:40:26.250Z,9.23
2023-04-17T11:41:46.644Z,8.13
2023-04-17T11:42:49.074Z,8.33
2023-04-17T11:43:51.746Z,7.63
2023-04-17T11:45:04.215Z,8.23
2023-04-17T11:46:06.636Z,8.13
2023-04-17T11:47:08.966Z,10.40
2023-04-17T11:48:11.682Z,9.93
2023-04-17T11:49:13.577Z,8.70
2023-04-17T11:50:16.022Z,9.17
2023-04-17T11:51:18.327Z,9.10
2023-04-17T11:52:20.039Z,10.07
2023-04-17T11:53:21.751Z,9.60
2023-04-17T11:54:27.356Z,9.90
2023-04-17T11:55:31.432Z,10.63
2023-04-17T11:56:33.037Z,8.77
2023-04-17T11:57:43.598Z,8.90
2023-04-17T11:58:55.645Z,7.50
2023-04-17T11:59:57.367Z,8.77
2023-04-17T12:01:07.117Z,8.60
2023-04-17T12:02:09.665Z,8.30
2023-04-17T12:03:30.491Z,7.93
2023-04-17T12:04:34.699Z,8.43
2023-04-17T12:05:36.801Z,7.80
2023-04-17T12:06:38.469Z,8.03
2023-04-17T12:07:40.448Z,8.20
2023-04-17T12:08:47.858Z,8.37
2023-04-17T12:09:59.145Z,7.47
2023-04-17T12:11:01.332Z,8.70
2023-04-17T12:12:06.954Z,8.10
2023-04-17T12:13:09.506Z,8.43
2023-04-17T12:14:12.670Z,8.43
2023-04-17T12:15:14.469Z,8.43
2023-04-17T12:16:16.133Z,9.10
2023-04-17T12:17:17.773Z,7.53
2023-04-17T12:18:19.373Z,8.53
2023-04-17T12:19:20.981Z,7.70
2023-04-17T12:20:23.938Z,8.03
2023-04-17T12:21:26.989Z,7.13
2023-04-17T12:22:29.851Z,8.00
2023-04-17T12:23:31.418Z,7.63
2023-04-17T12:24:32.973Z,8.03
2023-04-17T12:25:34.810Z,8.73
2023-04-17T12:26:36.407Z,7.90
2023-04-17T12:27:38.090Z,8.80
2023-04-17T12:28:39.638Z,7.13
2023-04-17T12:29:44.518Z,8.63
2023-04-17T12:30:46.539Z,8.40
2023-04-17T12:31:48.125Z,7.93
2023-04-17T12:32:50.038Z,8.43
2023-04-17T12:33:52.573Z,8.37
2023-04-17T12:34:54.728Z,8.63
2023-04-17T12:35:56.700Z,8.07
2023-04-17T12:36:58.591Z,8.33
2023-04-17T12:38:01.032Z,9.50
2023-04-17T12:39:03.073Z,8.23
2023-04-17T12:40:05.240Z,8.33
2023-04-17T12:41:07.269Z,9.40
2023-04-17T12:42:08.902Z,8.93
2023-04-17T12:43:11.285Z,8.07
2023-04-17T12:44:13.109Z,9.00
2023-04-17T12:45:15.704Z,8.50
2023-04-17T12:46:17.812Z,10.43
2023-04-17T12:47:19.453Z,10.80
2023-04-17T12:48:21.021Z,9.50
2023-04-17T12:49:23.739Z,8.50
2023-04-17T12:50:25.524Z,8.70
2023-04-17T12:51:32.318Z,12.00
2023-04-17T12:52:33.990Z,9.67
2023-04-17T12:53:35.589Z,9.97
2023-04-17T12:54:37.587Z,8.43
2023-04-17T12:55:41.043Z,9.30
2023-04-17T12:56:42.821Z,8.77
2023-04-17T12:57:44.426Z,8.80
2023-04-17T12:58:46.181Z,9.50
2023-04-17T12:59:48.264Z,9.03
2023-04-17T13:00:49.929Z,9.30
2023-04-17T13:01:51.706Z,9.13
2023-04-17T13:02:53.735Z,8.60
2023-04-17T13:03:55.582Z,9.30
2023-04-17T13:04:57.385Z,9.40
2023-04-17T13:05:59.008Z,8.40
2023-04-17T13:07:01.025Z,9.10
2023-04-17T13:08:03.618Z,9.07
2023-04-17T13:09:05.373Z,8.70
2023-04-17T13:10:07.278Z,8.60
2023-04-17T13:11:08.827Z,9.80
2023-04-17T13:12:10.548Z,9.73
2023-04-17T13:13:12.042Z,8.17
2023-04-17T13:14:15.355Z,8.97
2023-04-17T13:15:17.142Z,8.50
2023-04-17T13:16:19.023Z,9.80
2023-04-17T13:17:21.337Z,7.83
2023-04-17T13:18:22.863Z,8.67
2023-04-17T13:19:24.935Z,8.57
2023-04-17T13:20:26.529Z,8.73
2023-04-17T13:21:28.223Z,8.63
2023-04-17T13:22:29.926Z,9.20
2023-04-17T13:23:31.598Z,9.60
2023-04-17T13:24:34.058Z,8.07
2023-04-17T13:25:35.749Z,7.23
2023-04-17T13:26:39.278Z,8.73
2023-04-17T13:27:40.856Z,8.53
2023-04-17T13:28:42.404Z,7.80
2023-04-17T13:29:44.042Z,7.70
2023-04-17T13:30:45.681Z,8.03
2023-04-17T13:31:47.416Z,6.90
2023-04-17T13:32:49.287Z,7.17
2023-04-17T13:33:51.029Z,8.00
2023-04-17T13:34:52.608Z,7.57
2023-04-17T13:35:54.241Z,7.43
2023-04-17T13:36:56.478Z,7.60
2023-04-17T13:38:01.225Z,8.17
2023-04-17T13:39:05.327Z,8.90
2023-04-17T13:40:10.863Z,9.03